Brillion, Wisconsin
Current Conditions -  °F | °C
As of 9:56 PM on Wednesday 28 Jan 2015 (Local Time) from KMTW Reporting Station
Clear Clear  
Wind Chill: 23°   Ceiling: Unl
Heat Index: 33°   Visibility: 10mi
Dew Point: 26°   Wind: 15mph
Humidity: 75%   Direction: 170°S
Pressure: 29.89"   Gusts: 22mph
Location:  44.18°N, 88.06°W
Report Text: KMTW 290356Z AUTO 17013G19KT 10SM CLR 01/M03 A2989 RMK AO2 SLP145 T00061033 FZRANO
Loading
Personal Weather Stations






























Interactive Weather Map New forecast layout! Learn more

10-Day Weather Forecast

Advertisements
Track Severe Weather on mobile